Walla Walla Regional Airport
KALW : now visible

Airfield :











YOU CAN JOIN US ON...

 
LOGIN :

Register | Disclaimer

   EN    FR    IT 

 









Legend :    VFR   Marginal VFR   IFR   Intensive IFR   Very Intensive IFR
Visi :
Ceiling :
>= 8 km
>= 3000ft
5 to 8 km
1000 to 3000 ft
1500m to 5 km
500 to 1000 ft
800 to 1500m
200 to 500 ft
< 800m
< 200 ft
Symbols :   Thunderstorms  Fog  Heavy snow  Heavy precipitations  Wind > 20 kt






- Airport Elevation : 1194 ft
- IATA code : ALW


KALW - Walla Walla Regional

CURRENT METAR :
  • 181753Z 34005KT 10SM SCT055 OVC100 M01/M03 A3025 RMK AO2 SLP255 T10111033 11011 21039 53005

EXPIRED METARs :
  • 181653Z 01004KT 4SM BR SCT060 OVC075 M02/M03 A3024 RMK AO2 SLP252 T10221033
  • 181611Z 00000KT 2 1/2SM BR BKN080 OVC100 M03/M04 A3024 RMK AO2 T10331039
  • 181600Z 13004KT 5SM BR FEW050 BKN090 OVC110 M03/M04 A3023 RMK AO2 T10331044
  • 181553Z 11005KT 2 1/2SM BR BKN050 BKN080 BKN110 M03/M04 A3024 RMK AO2 SLP253 T10331044

TAF KALW
Valid from the 18 at 18:00 until the 19 at 18:00 UTC


181730Z 1818/1918 16007KT 4SM BR SCT050 OVC070
TEMPO 1818/1822 2SM -SN BR BKN025 OVC035
FM182200 17005KT 6SM BR VCSH OVC035
FM190100 17005KT P6SM OVC035
FM190800 18005KT P6SM SCT060 BKN150
FM191500 16004KT 4SM BR SCT007 BKN200



MET'MAP, your aeronautical weather chart ! - Copyright ORBIFLY December 2007 - Disclaimer

ORBIFLY MET'MAP TEAM :

Programming & Development : Alexandra Zaïnal
Concept & original design : Baudouin d'Aumeries
Assistance for programming : Marc-Olivier Méhu
Technical & hardware support : Manuel Goepfert

Contact : metmap@orbifly.com




SOURCES & CREDITS :

   NOAA       Earth
Advisory